createdAt,value
2022-10-15T00:00:24.671Z,45.40
2022-10-15T00:02:53.030Z,57.00
2022-10-15T00:06:29.634Z,53.63
2022-10-15T00:08:57.879Z,62.37
2022-10-15T00:11:30.009Z,62.90
2022-10-15T00:14:00.504Z,69.93
2022-10-15T00:16:35.275Z,62.63
2022-10-15T00:19:11.334Z,66.10
2022-10-15T00:21:41.523Z,88.17
2022-10-15T00:24:14.108Z,97.07
2022-10-15T00:26:51.325Z,90.67
2022-10-15T00:29:20.928Z,93.63
2022-10-15T00:32:03.895Z,89.83
2022-10-15T00:34:34.309Z,77.77
2022-10-15T00:37:05.623Z,69.47
2022-10-15T00:39:43.995Z,67.67
2022-10-15T00:42:12.514Z,61.33
2022-10-15T00:44:58.654Z,56.40
2022-10-15T00:47:42.259Z,52.63
2022-10-15T00:50:31.768Z,50.00
2022-10-15T00:53:15.863Z,49.07
2022-10-15T00:55:49.951Z,61.90
2022-10-15T00:58:31.008Z,74.43
2022-10-15T01:01:09.064Z,80.17
2022-10-15T01:03:40.418Z,68.13
2022-10-15T01:06:10.293Z,67.03
2022-10-15T01:08:44.203Z,64.43
2022-10-15T01:11:33.035Z,52.73
2022-10-15T01:14:41.375Z,65.03
2022-10-15T01:17:26.807Z,61.83
2022-10-15T01:20:27.429Z,65.47
2022-10-15T01:23:41.987Z,67.93
2022-10-15T01:26:49.964Z,91.77
2022-10-15T01:29:51.093Z,90.73
2022-10-15T01:32:27.528Z,77.90
2022-10-15T01:35:20.279Z,98.77
2022-10-15T01:37:56.099Z,93.97
2022-10-15T01:40:44.204Z,112.27
2022-10-15T01:43:17.756Z,104.63
2022-10-15T01:45:54.787Z,106.67
2022-10-15T01:48:26.499Z,92.17
2022-10-15T01:50:58.249Z,86.47
2022-10-15T01:53:27.369Z,76.53
2022-10-15T01:56:02.279Z,56.63
2022-10-15T01:58:31.139Z,63.13
2022-10-15T02:00:59.660Z,61.43
2022-10-15T02:03:26.916Z,64.87
2022-10-15T02:06:05.529Z,61.83
2022-10-15T02:08:38.410Z,64.90
2022-10-15T02:11:13.208Z,59.40
2022-10-15T02:14:03.878Z,63.37
2022-10-15T02:16:42.090Z,64.57
2022-10-15T02:19:38.269Z,73.40
2022-10-15T02:22:26.958Z,90.97
2022-10-15T02:25:08.974Z,91.07
2022-10-15T02:27:37.769Z,74.57
2022-10-15T02:30:09.077Z,86.43
2022-10-15T02:32:39.114Z,75.90
2022-10-15T02:35:09.725Z,78.83
2022-10-15T02:37:40.025Z,84.97
2022-10-15T02:40:07.554Z,75.30
2022-10-15T02:42:34.729Z,77.30
2022-10-15T02:45:01.781Z,64.13
2022-10-15T02:47:28.889Z,62.27
2022-10-15T02:49:55.938Z,70.50
2022-10-15T02:52:23.200Z,87.87
2022-10-15T02:54:50.388Z,77.33
2022-10-15T02:57:17.484Z,70.47
2022-10-15T02:59:44.548Z,66.90
2022-10-15T03:02:15.334Z,63.20
2022-10-15T03:07:30.468Z,60.67
2022-10-15T03:09:58.888Z,56.13
2022-10-15T03:12:26.313Z,51.13
2022-10-15T03:14:54.509Z,56.20
2022-10-15T03:17:21.924Z,50.23
2022-10-15T03:19:49.293Z,50.20
2022-10-15T03:22:16.373Z,49.90
2022-10-15T03:24:43.484Z,49.17
2022-10-15T03:27:10.640Z,48.57
2022-10-15T03:29:37.674Z,47.23
2022-10-15T03:32:04.895Z,47.20
2022-10-15T03:34:31.951Z,46.50
2022-10-15T03:36:59.143Z,44.50
2022-10-15T03:39:26.296Z,46.80
2022-10-15T03:41:54.049Z,46.97
2022-10-15T03:44:21.494Z,50.00
2022-10-15T03:46:48.578Z,50.40
2022-10-15T03:49:15.875Z,50.73
2022-10-15T03:51:43.130Z,51.77
2022-10-15T03:54:10.121Z,50.80
2022-10-15T03:56:37.699Z,47.13
2022-10-15T03:59:04.739Z,49.77
2022-10-15T04:01:31.935Z,49.20
2022-10-15T04:03:59.127Z,58.57
2022-10-15T04:06:26.168Z,51.03
2022-10-15T04:08:53.491Z,66.50
2022-10-15T04:11:21.234Z,57.63
2022-10-15T04:13:51.529Z,68.10
2022-10-15T04:16:18.613Z,60.23
2022-10-15T04:18:45.779Z,64.67
2022-10-15T04:21:12.954Z,64.13
2022-10-15T04:23:40.056Z,68.60
2022-10-15T04:26:07.591Z,66.37
2022-10-15T04:28:34.752Z,62.53
2022-10-15T04:31:03.036Z,62.13
2022-10-15T04:33:30.105Z,62.10
2022-10-15T04:36:06.314Z,57.67
2022-10-15T04:38:34.132Z,56.87
2022-10-15T04:41:03.826Z,58.60
2022-10-15T04:43:31.939Z,58.60
2022-10-15T04:46:00.394Z,51.47
2022-10-15T04:48:32.424Z,55.87
2022-10-15T04:51:09.454Z,47.03
2022-10-15T04:53:36.610Z,47.07
2022-10-15T04:56:15.581Z,58.33
2022-10-15T04:58:43.141Z,56.00
2022-10-15T05:01:12.729Z,63.10
2022-10-15T05:03:44.881Z,69.17
2022-10-15T05:06:19.451Z,62.20
2022-10-15T05:08:47.435Z,62.53
2022-10-15T05:11:20.845Z,60.60
2022-10-15T05:13:48.023Z,59.20
2022-10-15T05:16:21.212Z,55.97
2022-10-15T05:18:51.494Z,59.43
2022-10-15T05:21:19.691Z,58.23
2022-10-15T05:23:47.539Z,75.03
2022-10-15T05:26:17.894Z,74.90
2022-10-15T05:28:45.023Z,47.00
2022-10-15T05:31:18.549Z,74.60
2022-10-15T05:33:50.493Z,61.53
2022-10-15T05:36:22.278Z,70.23
2022-10-15T05:38:52.338Z,59.30
2022-10-15T05:41:20.519Z,62.47
2022-10-15T05:43:52.048Z,68.63
2022-10-15T05:46:20.300Z,59.97
2022-10-15T05:48:55.404Z,84.37
2022-10-15T05:51:23.173Z,78.93
2022-10-15T05:53:59.249Z,78.90
2022-10-15T05:56:27.455Z,69.77
2022-10-15T05:58:55.768Z,69.63
2022-10-15T06:01:23.268Z,68.73
2022-10-15T06:03:50.344Z,65.80
2022-10-15T06:06:22.968Z,62.97
2022-10-15T06:08:51.248Z,54.70
2022-10-15T06:11:18.388Z,56.33
2022-10-15T06:13:46.454Z,57.67
2022-10-15T06:16:18.040Z,50.83
2022-10-15T06:18:48.153Z,52.57
2022-10-15T06:21:15.280Z,59.87
2022-10-15T06:23:42.308Z,56.23
2022-10-15T06:26:10.887Z,57.43
2022-10-15T06:28:39.285Z,58.90
2022-10-15T06:31:06.958Z,59.83
2022-10-15T06:33:36.077Z,56.03
2022-10-15T06:36:09.129Z,57.67
2022-10-15T06:38:37.094Z,59.37
2022-10-15T06:41:08.229Z,55.20
2022-10-15T06:43:36.323Z,58.20
2022-10-15T06:46:05.418Z,56.80
2022-10-15T06:48:33.209Z,56.43
2022-10-15T06:51:01.503Z,53.83
2022-10-15T06:53:30.131Z,55.83
2022-10-15T06:56:02.468Z,54.80
2022-10-15T06:58:29.966Z,53.60
2022-10-15T07:01:04.774Z,58.23
2022-10-15T07:03:32.463Z,55.53
2022-10-15T07:06:07.662Z,58.30
2022-10-15T07:08:35.747Z,52.53
2022-10-15T07:11:04.379Z,52.03
2022-10-15T07:13:31.726Z,50.53
2022-10-15T07:15:58.787Z,50.93
2022-10-15T07:18:25.925Z,49.60
2022-10-15T07:20:53.265Z,49.03
2022-10-15T07:23:24.075Z,52.47
2022-10-15T07:25:54.268Z,49.03
2022-10-15T07:28:21.634Z,48.83
2022-10-15T07:30:48.828Z,51.53
2022-10-15T07:33:15.854Z,49.40
2022-10-15T07:35:42.969Z,46.60
2022-10-15T07:38:10.128Z,52.40
2022-10-15T07:40:37.177Z,49.77
2022-10-15T07:43:04.233Z,52.53
2022-10-15T07:45:31.316Z,40.37
2022-10-15T07:47:58.294Z,55.90
2022-10-15T07:50:28.125Z,52.60
2022-10-15T07:52:57.746Z,47.87
2022-10-15T07:55:24.718Z,45.97
2022-10-15T07:57:59.998Z,47.43
2022-10-15T08:00:29.884Z,51.37
2022-10-15T08:02:58.433Z,44.80
2022-10-15T08:05:25.600Z,47.57
2022-10-15T08:08:02.700Z,53.97
2022-10-15T08:10:29.988Z,51.20
2022-10-15T08:13:05.962Z,53.77
2022-10-15T08:15:36.488Z,50.37
2022-10-15T08:18:06.060Z,54.63
2022-10-15T08:20:35.148Z,50.77
2022-10-15T08:23:06.227Z,54.47
2022-10-15T08:25:34.292Z,53.20
2022-10-15T08:28:10.683Z,49.93
2022-10-15T08:30:39.871Z,52.00
2022-10-15T08:33:08.298Z,51.53
2022-10-15T08:35:39.962Z,50.63
2022-10-15T08:38:07.046Z,49.27
2022-10-15T08:40:34.329Z,52.43
2022-10-15T08:43:05.523Z,57.83
2022-10-15T08:45:40.064Z,54.03
2022-10-15T08:48:27.918Z,49.83
2022-10-15T08:51:18.324Z,49.57
2022-10-15T08:53:56.478Z,55.93
2022-10-15T08:57:09.209Z,54.10
2022-10-15T08:59:52.869Z,50.87
2022-10-15T09:02:34.645Z,58.57
2022-10-15T09:05:36.363Z,55.00
2022-10-15T09:08:17.510Z,52.80
2022-10-15T09:10:56.771Z,53.10
2022-10-15T09:13:50.713Z,53.03
2022-10-15T09:16:50.748Z,48.40
2022-10-15T09:19:26.260Z,54.60
2022-10-15T09:21:56.674Z,52.33
2022-10-15T09:24:28.804Z,51.23
2022-10-15T09:27:37.223Z,48.03
2022-10-15T09:30:37.390Z,50.17
2022-10-15T09:33:25.269Z,51.05
2022-10-15T09:36:13.333Z,48.17
2022-10-15T09:39:06.308Z,51.28
2022-10-15T09:42:20.350Z,43.45
2022-10-15T09:44:51.540Z,50.42
2022-10-15T09:47:32.568Z,49.28
2022-10-15T09:50:10.336Z,48.57
2022-10-15T09:53:24.495Z,44.13
2022-10-15T09:56:15.004Z,50.25
2022-10-15T09:59:01.969Z,53.38
2022-10-15T10:01:33.434Z,48.22
2022-10-15T10:04:37.944Z,44.33
2022-10-15T10:07:11.490Z,46.58
2022-10-15T10:09:58.788Z,46.97
2022-10-15T10:12:34.724Z,43.22
2022-10-15T10:15:36.902Z,42.75
2022-10-15T10:18:07.646Z,38.80
2022-10-15T10:20:53.187Z,42.20
2022-10-15T10:23:34.237Z,42.63
2022-10-15T10:26:14.483Z,32.90
2022-10-15T10:29:04.964Z,38.75
2022-10-15T10:31:47.889Z,35.80
2022-10-15T10:34:25.044Z,37.37
2022-10-15T10:37:18.106Z,41.47
2022-10-15T10:39:53.803Z,40.10
2022-10-15T10:42:37.053Z,59.87
2022-10-15T10:45:24.200Z,45.50
2022-10-15T10:48:00.768Z,72.57
2022-10-15T10:50:35.647Z,71.73
2022-10-15T10:53:34.172Z,43.73
2022-10-15T10:56:15.384Z,58.17
2022-10-15T10:58:44.873Z,47.80
2022-10-15T11:01:18.825Z,38.80
2022-10-15T11:03:49.638Z,42.35
2022-10-15T11:07:04.627Z,43.05
2022-10-15T11:10:22.238Z,32.67
2022-10-15T11:13:08.028Z,36.25
2022-10-15T11:16:08.161Z,36.65
2022-10-15T11:19:03.527Z,41.55
2022-10-15T11:22:13.830Z,30.73
2022-10-15T11:25:21.419Z,40.28
2022-10-15T11:28:12.219Z,36.20
2022-10-15T11:31:03.967Z,38.47
2022-10-15T11:34:12.520Z,38.80
2022-10-15T11:37:34.467Z,35.40
2022-10-15T11:40:34.961Z,38.38
2022-10-15T11:43:41.083Z,35.40
2022-10-15T11:46:36.948Z,29.75
2022-10-15T11:49:41.650Z,33.63
2022-10-15T11:52:47.163Z,27.90
2022-10-15T11:55:42.583Z,32.33
2022-10-15T11:58:55.917Z,35.50
2022-10-15T12:01:52.648Z,36.72
2022-10-15T12:04:37.026Z,36.78
2022-10-15T12:07:08.618Z,24.45
2022-10-15T12:09:44.029Z,36.83
2022-10-15T12:12:36.909Z,36.50
2022-10-15T12:15:39.144Z,35.28
2022-10-15T12:18:49.348Z,34.25
2022-10-15T12:21:58.108Z,37.55
2022-10-15T12:24:56.049Z,38.90
2022-10-15T12:27:37.229Z,38.00
2022-10-15T12:30:09.644Z,35.25
2022-10-15T12:32:46.604Z,34.75
2022-10-15T12:35:46.308Z,33.20
2022-10-15T12:38:30.125Z,28.95
2022-10-15T12:41:06.907Z,38.45
2022-10-15T12:43:55.844Z,28.35
2022-10-15T12:46:40.003Z,33.38
2022-10-15T12:49:35.083Z,35.22
2022-10-15T12:52:42.592Z,37.50
2022-10-15T12:56:00.259Z,32.85
2022-10-15T12:58:48.807Z,34.28
2022-10-15T13:01:16.937Z,34.47
2022-10-15T13:03:51.271Z,34.00
2022-10-15T13:06:32.203Z,29.23
2022-10-15T13:09:20.363Z,36.75
2022-10-15T13:11:54.325Z,37.03
2022-10-15T13:14:52.692Z,28.92
2022-10-15T13:17:34.312Z,34.70
2022-10-15T13:20:30.422Z,34.45
2022-10-15T13:23:30.057Z,35.92
2022-10-15T13:26:36.035Z,34.28
2022-10-15T13:29:06.392Z,36.92
2022-10-15T13:31:40.908Z,33.30
2022-10-15T13:34:38.624Z,34.47
2022-10-15T13:37:08.238Z,28.17
2022-10-15T13:39:41.788Z,31.85
2022-10-15T13:42:26.695Z,26.38
2022-10-15T13:45:19.392Z,24.13
2022-10-15T13:47:53.816Z,33.30
2022-10-15T13:50:31.758Z,35.08
2022-10-15T13:53:07.482Z,31.40
2022-10-15T13:55:39.395Z,30.45
2022-10-15T13:58:10.349Z,32.70
2022-10-15T14:00:40.481Z,27.38
2022-10-15T14:03:41.035Z,30.90
2022-10-15T14:06:33.698Z,35.25
2022-10-15T14:09:17.514Z,32.15
2022-10-15T14:11:45.859Z,33.03
2022-10-15T14:14:44.123Z,35.42
2022-10-15T14:17:22.848Z,30.85
2022-10-15T14:22:52.059Z,32.78
2022-10-15T14:25:27.859Z,34.72
2022-10-15T14:28:00.564Z,31.38
2022-10-15T14:30:39.639Z,30.73
2022-10-15T14:33:31.808Z,30.58
2022-10-15T14:36:43.907Z,30.35
2022-10-15T14:39:38.793Z,33.17
2022-10-15T14:42:07.749Z,24.05
2022-10-15T14:45:19.843Z,30.27
2022-10-15T14:47:51.568Z,32.47
2022-10-15T14:50:23.705Z,33.80
2022-10-15T14:52:54.923Z,31.60
2022-10-15T14:55:41.274Z,30.67
2022-10-15T14:58:18.964Z,36.53
2022-10-15T15:01:04.147Z,32.22
2022-10-15T15:03:43.224Z,38.25
2022-10-15T15:06:14.123Z,37.67
2022-10-15T15:08:50.084Z,32.67
2022-10-15T15:11:37.743Z,33.65
2022-10-15T15:14:23.647Z,31.27
2022-10-15T15:17:00.687Z,30.95
2022-10-15T15:19:28.769Z,28.95
2022-10-15T15:21:56.974Z,29.55
2022-10-15T15:24:25.418Z,27.52
2022-10-15T15:26:55.949Z,32.30
2022-10-15T15:29:23.209Z,33.75
2022-10-15T15:31:52.044Z,32.30
2022-10-15T15:34:20.503Z,29.45
2022-10-15T15:36:49.008Z,28.05
2022-10-15T15:39:26.149Z,25.95
2022-10-15T15:41:54.358Z,25.38
2022-10-15T15:44:26.478Z,38.40
2022-10-15T15:46:56.217Z,34.00
2022-10-15T15:49:25.707Z,36.95
2022-10-15T15:51:53.923Z,32.83
2022-10-15T15:54:23.568Z,32.47
2022-10-15T15:56:50.660Z,35.63
2022-10-15T15:59:22.154Z,34.35
2022-10-15T16:01:52.503Z,27.80
2022-10-15T16:04:24.266Z,32.60
2022-10-15T16:06:52.424Z,33.63
2022-10-15T16:09:22.913Z,36.33
2022-10-15T16:11:54.103Z,32.73
2022-10-15T16:14:23.153Z,32.93
2022-10-15T16:16:52.963Z,36.85
2022-10-15T16:19:21.983Z,38.03
2022-10-15T16:21:50.233Z,35.17
2022-10-15T16:24:18.728Z,38.13
2022-10-15T16:26:47.967Z,40.08
2022-10-15T16:29:17.763Z,38.45
2022-10-15T16:31:47.448Z,34.60
2022-10-15T16:34:16.075Z,35.67
2022-10-15T16:36:46.565Z,33.47
2022-10-15T16:39:13.571Z,44.47
2022-10-15T16:41:43.910Z,33.07
2022-10-15T16:44:16.138Z,43.23
2022-10-15T16:46:43.653Z,48.13
2022-10-15T16:49:13.359Z,43.67
2022-10-15T16:51:43.676Z,40.83
2022-10-15T16:54:17.878Z,41.47
2022-10-15T16:56:50.542Z,41.73
2022-10-15T16:59:30.352Z,41.20
2022-10-15T17:02:01.468Z,37.63
2022-10-15T17:04:38.691Z,40.70
2022-10-15T17:07:09.203Z,41.57
2022-10-15T17:09:38.608Z,39.80
2022-10-15T17:12:06.938Z,38.30
2022-10-15T17:14:41.679Z,44.33
2022-10-15T17:17:13.967Z,42.57
2022-10-15T17:19:44.784Z,43.43
2022-10-15T17:22:12.848Z,49.73
2022-10-15T17:24:41.252Z,48.30
2022-10-15T17:27:11.515Z,49.57
2022-10-15T17:29:41.599Z,50.13
2022-10-15T17:32:11.068Z,47.67
2022-10-15T17:34:40.469Z,46.53
2022-10-15T17:37:10.622Z,44.57
2022-10-15T17:39:45.037Z,46.47
2022-10-15T17:42:17.489Z,54.37
2022-10-15T17:44:44.704Z,56.40
2022-10-15T17:47:16.878Z,50.13
2022-10-15T17:49:45.238Z,50.43
2022-10-15T17:52:13.869Z,57.83
2022-10-15T17:54:40.848Z,47.97
2022-10-15T17:57:10.548Z,44.83
2022-10-15T17:59:37.604Z,52.57
2022-10-15T18:02:04.779Z,51.93
2022-10-15T18:04:37.309Z,50.73
2022-10-15T18:07:09.144Z,52.17
2022-10-15T18:09:38.959Z,57.20
2022-10-15T18:12:17.889Z,52.67
2022-10-15T18:14:48.469Z,45.03
2022-10-15T18:17:19.948Z,46.80
2022-10-15T18:19:49.334Z,52.23
2022-10-15T18:22:19.165Z,49.47
2022-10-15T18:24:50.427Z,59.40
2022-10-15T18:27:18.973Z,45.10
2022-10-15T18:29:47.573Z,56.80
2022-10-15T18:32:19.863Z,50.20
2022-10-15T18:34:52.283Z,52.47
2022-10-15T18:37:25.314Z,43.07
2022-10-15T18:39:56.779Z,52.20
2022-10-15T18:42:26.704Z,41.77
2022-10-15T18:44:55.301Z,47.67
2022-10-15T18:47:23.338Z,45.90
2022-10-15T18:49:52.268Z,46.50
2022-10-15T18:52:38.772Z,55.83
2022-10-15T18:55:17.929Z,48.20
2022-10-15T18:57:46.673Z,42.67
2022-10-15T19:00:17.224Z,56.67
2022-10-15T19:02:45.313Z,51.90
2022-10-15T19:05:16.383Z,52.60
2022-10-15T19:07:45.639Z,53.53
2022-10-15T19:10:15.352Z,51.73
2022-10-15T19:12:50.273Z,47.97
2022-10-15T19:15:18.390Z,49.20
2022-10-15T19:17:46.960Z,49.73
2022-10-15T19:20:23.008Z,54.70
2022-10-15T19:22:51.773Z,47.40
2022-10-15T19:25:19.895Z,47.17
2022-10-15T19:27:56.780Z,47.90
2022-10-15T19:30:25.343Z,40.53
2022-10-15T19:32:58.050Z,49.53
2022-10-15T19:35:26.747Z,49.70
2022-10-15T19:37:55.095Z,57.50
2022-10-15T19:40:32.342Z,53.67
2022-10-15T19:43:00.867Z,57.63
2022-10-15T19:45:36.384Z,61.80
2022-10-15T19:48:12.914Z,59.10
2022-10-15T19:50:45.919Z,57.03
2022-10-15T19:53:17.439Z,43.57
2022-10-15T19:55:57.112Z,47.33
2022-10-15T19:58:27.696Z,57.80
2022-10-15T20:00:57.477Z,50.17
2022-10-15T20:03:28.103Z,58.60
2022-10-15T20:05:57.598Z,50.13
2022-10-15T20:08:33.889Z,60.20
2022-10-15T20:11:10.278Z,51.93
2022-10-15T20:13:39.143Z,55.13
2022-10-15T20:16:22.987Z,55.17
2022-10-15T20:18:56.344Z,64.23
2022-10-15T20:21:25.308Z,66.77
2022-10-15T20:23:53.963Z,57.57
2022-10-15T20:26:24.122Z,53.47
2022-10-15T20:28:57.136Z,56.73
2022-10-15T20:31:31.447Z,58.80
2022-10-15T20:34:02.294Z,53.77
2022-10-15T20:36:33.044Z,55.63
2022-10-15T20:39:02.181Z,51.87
2022-10-15T20:41:34.449Z,56.70
2022-10-15T20:44:04.068Z,53.87
2022-10-15T20:46:37.363Z,50.80
2022-10-15T20:49:13.421Z,53.60
2022-10-15T20:51:52.889Z,52.23
2022-10-15T20:54:20.709Z,50.60
2022-10-15T20:56:49.938Z,48.53
2022-10-15T20:59:19.343Z,48.03
2022-10-15T21:01:49.660Z,54.53
2022-10-15T21:04:19.520Z,48.07
2022-10-15T21:06:48.235Z,52.63
2022-10-15T21:09:18.798Z,50.23
2022-10-15T21:11:50.717Z,58.50
2022-10-15T21:14:19.383Z,57.67
2022-10-15T21:16:47.968Z,56.27
2022-10-15T21:19:16.592Z,52.77
2022-10-15T21:21:47.301Z,51.47
2022-10-15T21:24:15.761Z,64.57
2022-10-15T21:26:44.307Z,59.83
2022-10-15T21:29:20.157Z,54.50
2022-10-15T21:31:48.841Z,56.90
2022-10-15T21:34:17.623Z,62.70
2022-10-15T21:36:47.899Z,64.20
2022-10-15T21:39:16.982Z,67.87
2022-10-15T21:41:46.402Z,70.43
2022-10-15T21:44:17.067Z,69.27
2022-10-15T21:46:46.760Z,48.43
2022-10-15T21:49:20.897Z,64.27
2022-10-15T21:51:51.097Z,65.53
2022-10-15T21:54:19.519Z,60.03
2022-10-15T21:56:46.524Z,47.63
2022-10-15T21:59:17.727Z,36.10
2022-10-15T22:01:55.706Z,42.10
2022-10-15T22:04:27.483Z,41.67
2022-10-15T22:06:59.627Z,40.50
2022-10-15T22:09:31.372Z,42.60
2022-10-15T22:12:01.765Z,51.13
2022-10-15T22:14:31.885Z,49.77
2022-10-15T22:16:59.672Z,50.00
2022-10-15T22:19:32.346Z,53.93
2022-10-15T22:22:00.862Z,59.70
2022-10-15T22:24:29.738Z,58.57
2022-10-15T22:26:58.547Z,65.30
2022-10-15T22:29:34.575Z,68.30
2022-10-15T22:32:05.417Z,68.63
2022-10-15T22:34:34.563Z,70.90
2022-10-15T22:37:10.506Z,68.83
2022-10-15T22:39:41.257Z,103.07
2022-10-15T22:42:10.853Z,135.17
2022-10-15T22:44:39.297Z,113.63
2022-10-15T22:47:07.812Z,130.17
2022-10-15T22:49:35.543Z,115.93
2022-10-15T22:52:03.750Z,127.43
2022-10-15T22:54:30.947Z,137.43
2022-10-15T22:56:59.147Z,125.77
2022-10-15T22:59:29.747Z,126.23
2022-10-15T23:01:58.952Z,142.97
2022-10-15T23:04:27.408Z,127.87
2022-10-15T23:06:56.829Z,105.07
2022-10-15T23:09:26.697Z,138.53
2022-10-15T23:12:03.864Z,114.97
2022-10-15T23:14:41.077Z,149.87
2022-10-15T23:17:12.670Z,158.73
2022-10-15T23:19:43.682Z,115.87
2022-10-15T23:22:14.353Z,143.00
2022-10-15T23:24:42.738Z,149.93
2022-10-15T23:27:13.567Z,145.53
2022-10-15T23:29:44.203Z,135.27
2022-10-15T23:32:22.588Z,112.77
2022-10-15T23:34:50.858Z,118.53
2022-10-15T23:37:29.388Z,126.30
2022-10-15T23:39:59.237Z,115.57
2022-10-15T23:42:26.404Z,107.80
2022-10-15T23:44:54.539Z,105.70
2022-10-15T23:47:21.562Z,115.63
2022-10-15T23:49:51.327Z,100.73
2022-10-15T23:52:19.949Z,97.07
2022-10-15T23:54:52.842Z,96.87
2022-10-15T23:57:31.449Z,98.60
